createdAt,value
2022-09-25T00:00:45.021Z,99.90
2022-09-25T00:03:48.935Z,99.90
2022-09-25T00:06:52.150Z,99.90
2022-09-25T00:09:56.772Z,99.90
2022-09-25T00:12:59.999Z,99.90
2022-09-25T00:16:04.150Z,99.90
2022-09-25T00:19:24.774Z,99.90
2022-09-25T00:22:30.303Z,99.90
2022-09-25T00:25:34.880Z,99.90
2022-09-25T00:28:39.263Z,99.90
2022-09-25T00:31:42.642Z,99.90
2022-09-25T00:34:46.016Z,99.90
2022-09-25T00:37:49.267Z,99.90
2022-09-25T00:40:53.963Z,99.90
2022-09-25T00:43:59.137Z,99.90
2022-09-25T00:47:03.766Z,99.90
2022-09-25T00:50:16.284Z,99.90
2022-09-25T00:53:25.110Z,99.90
2022-09-25T00:56:33.063Z,99.90
2022-09-25T01:06:46.991Z,99.90
2022-09-25T01:09:52.577Z,99.90
2022-09-25T01:12:59.025Z,99.90
2022-09-25T01:16:10.910Z,99.90
2022-09-25T01:19:27.578Z,99.90
2022-09-25T01:22:45.806Z,99.90
2022-09-25T01:26:15.455Z,99.90
2022-09-25T01:29:24.380Z,99.90
2022-09-25T01:32:34.457Z,99.90
2022-09-25T01:35:43.283Z,99.90
2022-09-25T01:38:51.594Z,99.90
2022-09-25T01:41:59.921Z,99.90
2022-09-25T01:45:07.660Z,99.90
2022-09-25T01:48:14.457Z,99.90
2022-09-25T01:51:21.982Z,99.90
2022-09-25T01:54:29.805Z,99.90
2022-09-25T01:57:38.907Z,99.90
2022-09-25T02:00:50.314Z,99.90
2022-09-25T02:03:57.913Z,99.90
2022-09-25T02:07:06.584Z,99.90
2022-09-25T02:10:13.161Z,99.90
2022-09-25T02:13:19.262Z,99.90
2022-09-25T02:16:30.561Z,99.90
2022-09-25T02:19:51.395Z,99.90
2022-09-25T02:22:56.621Z,99.90
2022-09-25T02:26:06.758Z,99.90
2022-09-25T02:29:10.608Z,99.90
2022-09-25T02:32:19.012Z,99.90
2022-09-25T02:35:22.680Z,99.90
2022-09-25T02:38:26.007Z,99.90
2022-09-25T02:41:48.226Z,99.90
2022-09-25T02:45:08.006Z,99.90
2022-09-25T02:48:20.509Z,99.90
2022-09-25T02:51:31.155Z,99.90
2022-09-25T02:54:44.131Z,99.90
2022-09-25T02:57:52.772Z,99.90
2022-09-25T03:00:58.400Z,99.90
2022-09-25T03:04:05.628Z,99.90
2022-09-25T03:07:09.390Z,99.90
2022-09-25T03:10:11.689Z,99.90
2022-09-25T03:13:16.745Z,99.90
2022-09-25T03:16:32.234Z,99.90
2022-09-25T03:19:37.243Z,99.90
2022-09-25T03:22:40.436Z,99.90
2022-09-25T03:25:49.708Z,99.90
2022-09-25T03:28:54.740Z,99.90
2022-09-25T03:31:57.924Z,99.90
2022-09-25T03:35:02.510Z,99.90
2022-09-25T03:38:08.215Z,99.90
2022-09-25T03:41:13.527Z,99.90
2022-09-25T03:44:17.237Z,99.90
2022-09-25T03:47:20.856Z,99.90
2022-09-25T03:50:25.737Z,99.90
2022-09-25T03:53:31.305Z,99.90
2022-09-25T03:56:35.282Z,99.90
2022-09-25T03:59:38.493Z,99.90
2022-09-25T04:02:41.805Z,99.90
2022-09-25T04:05:46.436Z,99.90
2022-09-25T04:08:50.192Z,99.90
2022-09-25T04:11:55.298Z,99.90
2022-09-25T04:14:58.514Z,99.90
2022-09-25T04:18:05.958Z,99.90
2022-09-25T04:21:13.163Z,99.90
2022-09-25T04:24:33.836Z,99.90
2022-09-25T04:27:37.752Z,99.90
2022-09-25T04:30:41.086Z,99.90
2022-09-25T04:33:49.180Z,99.90
2022-09-25T04:36:53.724Z,99.90
2022-09-25T04:39:57.922Z,99.90
2022-09-25T04:43:02.669Z,99.90
2022-09-25T04:46:08.272Z,99.90
2022-09-25T04:49:11.731Z,99.90
2022-09-25T04:52:17.808Z,99.90
2022-09-25T04:55:24.326Z,99.90
2022-09-25T04:58:27.660Z,99.90
2022-09-25T05:01:30.974Z,99.90
2022-09-25T05:04:34.397Z,99.90
2022-09-25T05:07:39.397Z,99.90
2022-09-25T05:10:45.220Z,99.90
2022-09-25T05:13:51.704Z,99.90
2022-09-25T05:16:54.993Z,99.90
2022-09-25T05:19:58.212Z,99.90
2022-09-25T05:23:04.481Z,99.90
2022-09-25T05:26:07.778Z,99.90
2022-09-25T05:29:11.193Z,99.90
2022-09-25T05:32:14.499Z,99.90
2022-09-25T05:35:18.989Z,99.90
2022-09-25T05:38:23.703Z,99.90
2022-09-25T05:41:26.990Z,99.90
2022-09-25T05:44:30.206Z,99.90
2022-09-25T05:47:33.439Z,99.90
2022-09-25T05:50:37.186Z,99.90
2022-09-25T05:53:42.397Z,99.90
2022-09-25T05:56:45.745Z,99.90
2022-09-25T05:59:49.731Z,99.90
2022-09-25T06:02:53.827Z,99.90
2022-09-25T06:05:57.554Z,99.90
2022-09-25T06:09:02.449Z,99.90
2022-09-25T06:12:06.609Z,99.90
2022-09-25T06:15:10.628Z,99.90
2022-09-25T06:18:13.820Z,99.90
2022-09-25T06:21:17.169Z,99.90
2022-09-25T06:24:21.860Z,99.90
2022-09-25T06:27:25.221Z,99.90
2022-09-25T06:30:34.189Z,99.90
2022-09-25T06:33:37.455Z,99.90
2022-09-25T06:36:40.784Z,99.90
2022-09-25T06:39:45.423Z,99.90
2022-09-25T06:42:52.837Z,99.90
2022-09-25T06:45:56.268Z,99.90
2022-09-25T06:48:59.564Z,99.90
2022-09-25T06:52:03.035Z,99.90
2022-09-25T06:55:09.129Z,99.90
2022-09-25T06:58:14.122Z,99.90
2022-09-25T07:01:17.664Z,99.90
2022-09-25T07:04:20.999Z,99.90
2022-09-25T07:07:25.316Z,99.90
2022-09-25T07:10:30.484Z,99.90
2022-09-25T07:13:36.118Z,99.90
2022-09-25T07:16:39.475Z,99.90
2022-09-25T07:19:42.791Z,99.90
2022-09-25T07:22:46.064Z,99.90
2022-09-25T07:25:53.410Z,99.90
2022-09-25T07:28:58.407Z,99.90
2022-09-25T07:32:01.829Z,99.90
2022-09-25T07:35:05.705Z,99.90
2022-09-25T07:38:09.148Z,99.90
2022-09-25T07:41:14.155Z,99.90
2022-09-25T07:44:28.600Z,99.90
2022-09-25T07:47:33.316Z,99.90
2022-09-25T07:50:36.543Z,99.90
2022-09-25T07:53:39.842Z,99.90
2022-09-25T07:56:44.650Z,99.90
2022-09-25T07:59:48.217Z,99.90
2022-09-25T08:02:57.681Z,99.90
2022-09-25T08:06:02.261Z,99.90
2022-09-25T08:09:10.374Z,99.90
2022-09-25T08:12:15.959Z,99.90
2022-09-25T08:15:19.320Z,99.90
2022-09-25T08:18:22.729Z,99.90
2022-09-25T08:21:26.188Z,99.90
2022-09-25T08:24:29.497Z,99.90
2022-09-25T08:27:41.157Z,95.50
2022-09-25T08:30:44.705Z,93.60
2022-09-25T08:33:49.373Z,93.90
2022-09-25T08:36:52.750Z,99.90
2022-09-25T08:39:56.055Z,94.10
2022-09-25T08:43:01.262Z,97.70
2022-09-25T08:46:29.150Z,94.00
2022-09-25T08:49:38.306Z,99.90
2022-09-25T08:52:45.645Z,99.90
2022-09-25T08:56:07.009Z,98.10
2022-09-25T08:59:28.629Z,82.50
2022-09-25T09:02:44.683Z,94.00
2022-09-25T09:05:52.868Z,81.70
2022-09-25T09:09:08.658Z,96.30
2022-09-25T09:12:16.317Z,95.90
2022-09-25T09:15:35.735Z,86.00
2022-09-25T09:18:40.778Z,66.60
2022-09-25T09:21:53.518Z,74.50
2022-09-25T09:25:03.825Z,71.40
2022-09-25T09:28:14.860Z,84.30
2022-09-25T09:31:26.358Z,67.40
2022-09-25T09:35:12.778Z,74.70
2022-09-25T09:38:31.313Z,45.80
2022-09-25T09:41:56.308Z,28.00
2022-09-25T09:45:05.132Z,58.90
2022-09-25T09:48:18.467Z,49.50
2022-09-25T09:51:29.106Z,55.50
2022-09-25T09:54:38.519Z,65.80
2022-09-25T09:57:48.757Z,55.50
2022-09-25T10:00:52.219Z,18.60
2022-09-25T10:04:12.413Z,28.90
2022-09-25T10:07:22.626Z,1.00
2022-09-25T10:10:36.143Z,1.00
2022-09-25T10:13:41.151Z,1.00
2022-09-25T10:16:44.556Z,1.00
2022-09-25T10:19:55.238Z,1.00
2022-09-25T10:23:01.860Z,1.00
2022-09-25T10:26:07.343Z,7.90
2022-09-25T10:29:28.369Z,1.00
2022-09-25T10:32:33.778Z,12.10
2022-09-25T10:35:46.049Z,1.00
2022-09-25T10:38:58.054Z,1.00
2022-09-25T10:42:34.815Z,1.00
2022-09-25T10:45:40.817Z,1.00
2022-09-25T10:49:16.342Z,1.00
2022-09-25T10:52:21.253Z,1.00
2022-09-25T10:55:28.453Z,1.00
2022-09-25T10:58:37.182Z,1.00
2022-09-25T11:01:43.920Z,1.00
2022-09-25T11:04:58.146Z,1.00
2022-09-25T11:08:06.181Z,1.00
2022-09-25T11:11:10.547Z,1.00
2022-09-25T11:14:23.573Z,1.00
2022-09-25T11:17:38.542Z,1.00
2022-09-25T11:20:42.346Z,1.00
2022-09-25T11:23:58.921Z,1.00
2022-09-25T11:27:11.502Z,1.00
2022-09-25T11:37:33.015Z,1.00
2022-09-25T11:41:23.993Z,1.00
2022-09-25T11:44:37.517Z,1.00
2022-09-25T11:47:53.758Z,1.00
2022-09-25T11:51:03.698Z,42.60
2022-09-25T11:54:32.641Z,3.00
2022-09-25T11:57:51.724Z,1.00
2022-09-25T12:05:05.475Z,7.40
2022-09-25T12:08:31.877Z,1.00
2022-09-25T12:11:46.563Z,5.30
2022-09-25T12:15:01.500Z,1.00
2022-09-25T12:18:14.445Z,1.00
2022-09-25T12:21:22.342Z,26.90
2022-09-25T12:24:40.180Z,29.40
2022-09-25T12:28:01.194Z,40.00
2022-09-25T12:31:15.770Z,10.60
2022-09-25T12:34:33.114Z,24.60
2022-09-25T12:37:43.651Z,30.70
2022-09-25T12:40:51.897Z,21.00
2022-09-25T12:44:01.974Z,21.40
2022-09-25T12:47:11.409Z,23.80
2022-09-25T12:50:18.586Z,23.00
2022-09-25T12:53:32.834Z,17.00
2022-09-25T12:56:43.841Z,1.00
2022-09-25T12:59:52.228Z,1.00
2022-09-25T13:03:01.985Z,1.00
2022-09-25T13:06:23.273Z,1.00
2022-09-25T13:09:35.968Z,1.00
2022-09-25T13:12:39.860Z,1.00
2022-09-25T13:15:44.111Z,1.00
2022-09-25T13:18:56.668Z,1.10
2022-09-25T13:22:05.704Z,6.00
2022-09-25T13:25:19.533Z,6.40
2022-09-25T13:28:26.492Z,3.00
2022-09-25T13:31:34.649Z,1.00
2022-09-25T13:34:43.881Z,11.10
2022-09-25T13:37:48.753Z,7.90
2022-09-25T13:40:53.648Z,6.00
2022-09-25T13:44:35.817Z,1.00
2022-09-25T13:47:52.699Z,1.00
2022-09-25T13:51:38.220Z,1.00
2022-09-25T13:54:43.344Z,1.00
2022-09-25T13:58:05.760Z,1.00
2022-09-25T14:01:21.892Z,30.10
2022-09-25T14:04:34.092Z,31.00
2022-09-25T14:07:43.117Z,44.40
2022-09-25T14:10:49.437Z,31.10
2022-09-25T14:13:59.222Z,35.40
2022-09-25T14:17:06.263Z,69.60
2022-09-25T14:20:39.514Z,41.40
2022-09-25T14:24:01.985Z,9.50
2022-09-25T14:27:19.376Z,29.50
2022-09-25T14:30:30.997Z,19.10
2022-09-25T14:33:51.781Z,2.10
2022-09-25T14:37:07.074Z,6.50
2022-09-25T14:40:22.003Z,30.00
2022-09-25T14:43:56.829Z,25.20
2022-09-25T14:47:00.569Z,27.30
2022-09-25T14:50:05.403Z,28.90
2022-09-25T14:53:14.553Z,28.20
2022-09-25T14:56:20.106Z,50.20
2022-09-25T14:59:32.428Z,63.90
2022-09-25T15:02:40.353Z,81.50
2022-09-25T15:05:48.220Z,84.80
2022-09-25T15:08:52.259Z,84.40
2022-09-25T15:11:57.518Z,91.40
2022-09-25T15:15:08.264Z,92.10
2022-09-25T15:18:14.585Z,99.90
2022-09-25T15:21:26.070Z,99.90
2022-09-25T15:24:32.838Z,99.90
2022-09-25T15:27:43.721Z,99.90
2022-09-25T15:30:55.453Z,99.90
2022-09-25T15:34:11.529Z,99.90
2022-09-25T15:37:26.695Z,99.90
2022-09-25T15:40:30.511Z,99.90
2022-09-25T15:43:39.244Z,99.90
2022-09-25T15:46:45.539Z,99.90
2022-09-25T15:49:49.262Z,99.90
2022-09-25T15:52:55.901Z,99.90
2022-09-25T15:56:07.543Z,99.90
2022-09-25T15:59:31.559Z,99.90
2022-09-25T16:02:55.442Z,99.90
2022-09-25T16:06:06.410Z,99.90
2022-09-25T16:09:23.201Z,99.90
2022-09-25T16:12:41.114Z,99.90
2022-09-25T16:15:58.297Z,99.90
2022-09-25T16:19:24.578Z,99.90
2022-09-25T16:22:48.971Z,99.90
2022-09-25T16:25:54.549Z,99.90
2022-09-25T16:29:11.301Z,99.90
2022-09-25T16:32:29.849Z,99.90
2022-09-25T16:36:04.477Z,99.90
2022-09-25T16:39:39.109Z,99.90
2022-09-25T16:42:57.158Z,99.90
2022-09-25T16:46:20.837Z,99.90
2022-09-25T16:49:29.627Z,99.90
2022-09-25T16:52:43.388Z,99.90
2022-09-25T16:56:02.822Z,99.90
2022-09-25T16:59:20.365Z,99.90
2022-09-25T17:02:36.622Z,99.90
2022-09-25T17:05:42.892Z,99.90
2022-09-25T17:08:47.344Z,99.90
2022-09-25T17:12:18.394Z,99.90
2022-09-25T17:15:24.811Z,99.90
2022-09-25T17:18:39.409Z,99.90
2022-09-25T17:21:57.506Z,99.90
2022-09-25T17:28:28.869Z,99.90
2022-09-25T17:32:03.624Z,99.90
2022-09-25T17:36:21.415Z,99.90
2022-09-25T17:43:23.233Z,99.90
2022-09-25T17:46:42.940Z,99.90
2022-09-25T17:53:40.318Z,99.90
2022-09-25T18:01:22.499Z,99.90
2022-09-25T18:04:35.894Z,99.90
2022-09-25T18:07:40.199Z,99.90
2022-09-25T18:10:44.339Z,99.90
2022-09-25T18:14:01.374Z,99.90
2022-09-25T18:17:05.471Z,99.90
2022-09-25T18:20:38.225Z,99.90
2022-09-25T18:23:48.156Z,99.90
2022-09-25T18:26:55.291Z,99.90
2022-09-25T18:30:01.038Z,99.90
2022-09-25T18:33:05.537Z,99.90
2022-09-25T18:36:15.250Z,99.90
2022-09-25T18:39:20.601Z,99.90
2022-09-25T18:42:24.609Z,99.90
2022-09-25T18:45:39.177Z,99.90
2022-09-25T18:48:59.658Z,99.90
2022-09-25T18:52:03.328Z,99.90
2022-09-25T18:55:11.790Z,99.90
2022-09-25T18:58:19.875Z,99.90
2022-09-25T19:01:25.666Z,99.90
2022-09-25T19:04:34.503Z,99.90
2022-09-25T19:07:42.193Z,99.90
2022-09-25T19:10:50.061Z,99.90
2022-09-25T19:13:59.738Z,99.90
2022-09-25T19:17:09.666Z,99.90
2022-09-25T19:20:23.413Z,99.90
2022-09-25T19:23:36.294Z,99.90
2022-09-25T19:26:41.789Z,99.90
2022-09-25T19:30:00.891Z,99.90
2022-09-25T19:33:14.970Z,99.90
2022-09-25T19:36:22.385Z,99.90
2022-09-25T19:39:26.706Z,99.90
2022-09-25T19:42:33.832Z,99.90
2022-09-25T19:45:37.764Z,99.90
2022-09-25T19:48:43.859Z,99.90
2022-09-25T19:51:48.186Z,99.90
2022-09-25T19:54:52.832Z,99.90
2022-09-25T19:57:58.154Z,99.90
2022-09-25T20:01:02.080Z,99.90
2022-09-25T20:04:08.611Z,99.90
2022-09-25T20:07:16.085Z,99.90
2022-09-25T20:10:20.879Z,99.90
2022-09-25T20:13:24.377Z,99.90
2022-09-25T20:16:29.543Z,99.90
2022-09-25T20:19:34.504Z,99.90
2022-09-25T20:22:37.953Z,99.90
2022-09-25T20:25:41.467Z,99.90
2022-09-25T20:28:46.516Z,99.90
2022-09-25T20:31:50.689Z,99.90
2022-09-25T20:34:56.112Z,99.90
2022-09-25T20:37:59.536Z,99.90
2022-09-25T20:41:07.042Z,99.90
2022-09-25T20:44:10.490Z,99.90
2022-09-25T20:47:14.113Z,99.90
2022-09-25T20:50:21.427Z,99.90
2022-09-25T20:53:27.582Z,99.90
2022-09-25T20:56:32.686Z,99.90
2022-09-25T20:59:36.343Z,99.90
2022-09-25T21:02:39.873Z,99.90
2022-09-25T21:05:46.663Z,99.90
2022-09-25T21:08:53.254Z,99.90
2022-09-25T21:11:57.363Z,99.90
2022-09-25T21:15:00.668Z,99.90
2022-09-25T21:18:03.998Z,99.90
2022-09-25T21:21:10.939Z,99.90
2022-09-25T21:24:15.613Z,99.90
2022-09-25T21:27:18.906Z,99.90
2022-09-25T21:30:24.262Z,99.90
2022-09-25T21:33:27.650Z,99.90
2022-09-25T21:36:33.234Z,99.90
2022-09-25T21:39:36.550Z,99.90
2022-09-25T21:42:39.863Z,99.90
2022-09-25T21:45:43.280Z,99.90
2022-09-25T21:48:50.449Z,99.90
2022-09-25T21:51:55.287Z,99.90
2022-09-25T21:54:58.592Z,99.90
2022-09-25T21:58:02.223Z,99.90
2022-09-25T22:01:07.468Z,99.90
2022-09-25T22:04:13.793Z,99.90
2022-09-25T22:07:18.889Z,99.90
2022-09-25T22:10:22.329Z,99.90
2022-09-25T22:13:26.328Z,99.90
2022-09-25T22:16:32.209Z,99.90
2022-09-25T22:19:35.593Z,99.90
2022-09-25T22:22:40.325Z,99.90
2022-09-25T22:25:43.610Z,99.90
2022-09-25T22:28:47.641Z,99.90
2022-09-25T22:31:51.577Z,99.90
2022-09-25T22:34:54.912Z,99.90
2022-09-25T22:37:59.694Z,99.90
2022-09-25T22:41:05.069Z,99.90
2022-09-25T22:44:08.434Z,99.90
2022-09-25T22:47:11.769Z,99.90
2022-09-25T22:50:15.099Z,99.90
2022-09-25T22:53:20.381Z,99.90
2022-09-25T22:56:25.566Z,99.90
2022-09-25T22:59:29.074Z,99.90
2022-09-25T23:02:32.429Z,99.90
2022-09-25T23:05:37.117Z,99.90
2022-09-25T23:08:42.045Z,99.90
2022-09-25T23:11:45.802Z,99.90
2022-09-25T23:14:49.060Z,99.90
2022-09-25T23:17:52.360Z,99.90
2022-09-25T23:20:56.209Z,99.90
2022-09-25T23:24:03.595Z,99.90
2022-09-25T23:27:06.817Z,99.90
2022-09-25T23:30:11.582Z,99.90
2022-09-25T23:33:14.914Z,99.90
2022-09-25T23:36:20.399Z,99.90
2022-09-25T23:39:25.121Z,99.90
2022-09-25T23:42:28.491Z,99.90
2022-09-25T23:45:31.813Z,99.90
2022-09-25T23:48:35.193Z,99.90
2022-09-25T23:51:38.789Z,99.90
2022-09-25T23:54:43.840Z,99.90
2022-09-25T23:57:47.378Z,99.90
